sensor_id;sensor_type;location;lat;lon;timestamp;P1;durP1;ratioP1;P2;durP2;ratioP2
74044;SDS011;62389;51.412;5.436;2023-04-07T00:00:19;42.03;;;13.95;;
74044;SDS011;62389;51.412;5.436;2023-04-07T00:02:45;32.75;;;12.35;;
74044;SDS011;62389;51.412;5.436;2023-04-07T00:05:11;35.47;;;13.40;;
74044;SDS011;62389;51.412;5.436;2023-04-07T00:07:36;40.10;;;14.77;;
74044;SDS011;62389;51.412;5.436;2023-04-07T00:10:02;36.22;;;13.88;;
74044;SDS011;62389;51.412;5.436;2023-04-07T00:12:27;35.70;;;12.75;;
74044;SDS011;62389;51.412;5.436;2023-04-07T00:14:53;39.25;;;13.35;;
74044;SDS011;62389;51.412;5.436;2023-04-07T00:17:18;37.40;;;13.95;;
74044;SDS011;62389;51.412;5.436;2023-04-07T00:19:43;31.77;;;13.07;;
74044;SDS011;62389;51.412;5.436;2023-04-07T00:22:09;33.08;;;12.00;;
74044;SDS011;62389;51.412;5.436;2023-04-07T00:24:34;34.78;;;12.60;;
74044;SDS011;62389;51.412;5.436;2023-04-07T00:27:00;39.72;;;14.15;;
74044;SDS011;62389;51.412;5.436;2023-04-07T00:29:26;31.20;;;12.43;;
74044;SDS011;62389;51.412;5.436;2023-04-07T00:31:51;31.75;;;11.85;;
74044;SDS011;62389;51.412;5.436;2023-04-07T00:34:16;29.83;;;11.32;;
74044;SDS011;62389;51.412;5.436;2023-04-07T00:36:42;33.90;;;13.93;;
74044;SDS011;62389;51.412;5.436;2023-04-07T00:39:07;27.15;;;11.27;;
74044;SDS011;62389;51.412;5.436;2023-04-07T00:41:33;31.70;;;11.23;;
74044;SDS011;62389;51.412;5.436;2023-04-07T00:43:59;29.67;;;11.43;;
74044;SDS011;62389;51.412;5.436;2023-04-07T00:46:25;28.95;;;10.70;;
74044;SDS011;62389;51.412;5.436;2023-04-07T00:48:50;32.83;;;11.40;;
74044;SDS011;62389;51.412;5.436;2023-04-07T00:51:16;30.30;;;10.85;;
74044;SDS011;62389;51.412;5.436;2023-04-07T00:53:45;29.60;;;11.55;;
74044;SDS011;62389;51.412;5.436;2023-04-07T00:56:10;28.45;;;11.50;;
74044;SDS011;62389;51.412;5.436;2023-04-07T00:58:36;26.83;;;11.77;;
74044;SDS011;62389;51.412;5.436;2023-04-07T01:01:08;28.25;;;11.23;;
74044;SDS011;62389;51.412;5.436;2023-04-07T01:03:44;24.67;;;10.52;;
74044;SDS011;62389;51.412;5.436;2023-04-07T01:06:13;27.45;;;10.70;;
74044;SDS011;62389;51.412;5.436;2023-04-07T01:12:11;27.73;;;11.77;;
74044;SDS011;62389;51.412;5.436;2023-04-07T01:14:50;27.67;;;11.75;;
74044;SDS011;62389;51.412;5.436;2023-04-07T01:17:19;34.80;;;11.73;;
74044;SDS011;62389;51.412;5.436;2023-04-07T01:19:55;31.02;;;12.68;;
74044;SDS011;62389;51.412;5.436;2023-04-07T01:22:42;31.75;;;14.27;;
74044;SDS011;62389;51.412;5.436;2023-04-07T01:27:53;33.67;;;13.48;;
74044;SDS011;62389;51.412;5.436;2023-04-07T01:30:21;36.28;;;13.30;;
74044;SDS011;62389;51.412;5.436;2023-04-07T01:32:50;31.13;;;12.75;;
74044;SDS011;62389;51.412;5.436;2023-04-07T01:35:17;38.75;;;13.30;;
74044;SDS011;62389;51.412;5.436;2023-04-07T01:37:44;28.00;;;13.40;;
74044;SDS011;62389;51.412;5.436;2023-04-07T01:40:13;33.90;;;15.00;;
74044;SDS011;62389;51.412;5.436;2023-04-07T01:42:40;35.80;;;15.20;;
74044;SDS011;62389;51.412;5.436;2023-04-07T01:45:06;32.17;;;13.77;;
74044;SDS011;62389;51.412;5.436;2023-04-07T01:47:33;29.83;;;12.13;;
74044;SDS011;62389;51.412;5.436;2023-04-07T01:50:01;26.08;;;11.77;;
74044;SDS011;62389;51.412;5.436;2023-04-07T01:52:31;25.00;;;10.10;;
74044;SDS011;62389;51.412;5.436;2023-04-07T01:54:58;29.23;;;10.85;;
74044;SDS011;62389;51.412;5.436;2023-04-07T01:57:23;26.13;;;11.60;;
74044;SDS011;62389;51.412;5.436;2023-04-07T01:59:49;25.60;;;11.27;;
74044;SDS011;62389;51.412;5.436;2023-04-07T02:02:14;30.10;;;10.48;;
74044;SDS011;62389;51.412;5.436;2023-04-07T02:04:44;25.15;;;10.75;;
74044;SDS011;62389;51.412;5.436;2023-04-07T02:07:24;25.17;;;10.50;;
74044;SDS011;62389;51.412;5.436;2023-04-07T02:09:55;28.70;;;10.18;;
74044;SDS011;62389;51.412;5.436;2023-04-07T02:12:22;25.40;;;10.55;;
74044;SDS011;62389;51.412;5.436;2023-04-07T02:14:51;27.20;;;11.32;;
74044;SDS011;62389;51.412;5.436;2023-04-07T02:17:18;30.35;;;11.82;;
74044;SDS011;62389;51.412;5.436;2023-04-07T02:19:43;29.65;;;10.20;;
74044;SDS011;62389;51.412;5.436;2023-04-07T02:22:10;25.67;;;11.35;;
74044;SDS011;62389;51.412;5.436;2023-04-07T02:24:40;24.48;;;9.70;;
74044;SDS011;62389;51.412;5.436;2023-04-07T02:27:08;29.52;;;11.30;;
74044;SDS011;62389;51.412;5.436;2023-04-07T02:29:33;19.05;;;9.15;;
74044;SDS011;62389;51.412;5.436;2023-04-07T02:31:58;21.75;;;9.60;;
74044;SDS011;62389;51.412;5.436;2023-04-07T02:34:24;24.30;;;9.90;;
74044;SDS011;62389;51.412;5.436;2023-04-07T02:36:49;25.00;;;10.82;;
74044;SDS011;62389;51.412;5.436;2023-04-07T02:39:15;22.00;;;9.88;;
74044;SDS011;62389;51.412;5.436;2023-04-07T02:41:40;23.80;;;9.38;;
74044;SDS011;62389;51.412;5.436;2023-04-07T02:44:06;25.92;;;10.57;;
74044;SDS011;62389;51.412;5.436;2023-04-07T02:46:31;24.00;;;9.77;;
74044;SDS011;62389;51.412;5.436;2023-04-07T02:48:56;26.23;;;10.85;;
74044;SDS011;62389;51.412;5.436;2023-04-07T02:51:22;17.27;;;8.43;;
74044;SDS011;62389;51.412;5.436;2023-04-07T02:53:47;24.67;;;10.35;;
74044;SDS011;62389;51.412;5.436;2023-04-07T02:56:13;26.40;;;11.10;;
74044;SDS011;62389;51.412;5.436;2023-04-07T02:58:39;22.95;;;9.27;;
74044;SDS011;62389;51.412;5.436;2023-04-07T03:01:05;24.25;;;9.90;;
74044;SDS011;62389;51.412;5.436;2023-04-07T03:03:30;18.63;;;9.07;;
74044;SDS011;62389;51.412;5.436;2023-04-07T03:05:55;27.58;;;10.10;;
74044;SDS011;62389;51.412;5.436;2023-04-07T03:08:21;24.52;;;9.25;;
74044;SDS011;62389;51.412;5.436;2023-04-07T03:10:46;24.70;;;9.13;;
74044;SDS011;62389;51.412;5.436;2023-04-07T03:13:12;22.00;;;9.00;;
74044;SDS011;62389;51.412;5.436;2023-04-07T03:15:40;24.42;;;8.75;;
74044;SDS011;62389;51.412;5.436;2023-04-07T03:18:05;22.80;;;9.38;;
74044;SDS011;62389;51.412;5.436;2023-04-07T03:20:31;23.15;;;8.80;;
74044;SDS011;62389;51.412;5.436;2023-04-07T03:22:56;23.42;;;9.35;;
74044;SDS011;62389;51.412;5.436;2023-04-07T03:25:22;20.55;;;8.68;;
74044;SDS011;62389;51.412;5.436;2023-04-07T03:27:47;23.75;;;9.40;;
74044;SDS011;62389;51.412;5.436;2023-04-07T03:30:12;25.42;;;9.25;;
74044;SDS011;62389;51.412;5.436;2023-04-07T03:32:38;23.67;;;9.52;;
74044;SDS011;62389;51.412;5.436;2023-04-07T03:35:03;23.25;;;9.73;;
74044;SDS011;62389;51.412;5.436;2023-04-07T03:37:29;20.83;;;9.18;;
74044;SDS011;62389;51.412;5.436;2023-04-07T03:39:54;20.40;;;8.98;;
74044;SDS011;62389;51.412;5.436;2023-04-07T03:42:20;19.08;;;9.02;;
74044;SDS011;62389;51.412;5.436;2023-04-07T03:44:45;21.88;;;8.52;;
74044;SDS011;62389;51.412;5.436;2023-04-07T03:47:11;18.50;;;8.18;;
74044;SDS011;62389;51.412;5.436;2023-04-07T03:49:36;19.70;;;8.77;;
74044;SDS011;62389;51.412;5.436;2023-04-07T03:52:02;20.40;;;8.63;;
74044;SDS011;62389;51.412;5.436;2023-04-07T03:54:29;20.02;;;8.60;;
74044;SDS011;62389;51.412;5.436;2023-04-07T03:56:54;20.33;;;8.35;;
74044;SDS011;62389;51.412;5.436;2023-04-07T03:59:21;20.65;;;8.65;;
74044;SDS011;62389;51.412;5.436;2023-04-07T04:01:47;23.17;;;9.60;;
74044;SDS011;62389;51.412;5.436;2023-04-07T04:04:12;21.80;;;8.35;;
74044;SDS011;62389;51.412;5.436;2023-04-07T04:06:37;23.73;;;8.70;;
74044;SDS011;62389;51.412;5.436;2023-04-07T04:09:03;24.58;;;9.43;;
74044;SDS011;62389;51.412;5.436;2023-04-07T04:11:28;17.80;;;8.48;;
74044;SDS011;62389;51.412;5.436;2023-04-07T04:13:55;19.17;;;8.27;;
74044;SDS011;62389;51.412;5.436;2023-04-07T04:16:20;24.10;;;8.18;;
74044;SDS011;62389;51.412;5.436;2023-04-07T04:18:46;26.27;;;10.32;;
74044;SDS011;62389;51.412;5.436;2023-04-07T04:21:11;21.67;;;8.68;;
74044;SDS011;62389;51.412;5.436;2023-04-07T04:23:36;24.45;;;10.02;;
74044;SDS011;62389;51.412;5.436;2023-04-07T04:26:02;21.50;;;8.63;;
74044;SDS011;62389;51.412;5.436;2023-04-07T04:28:28;21.98;;;8.60;;
74044;SDS011;62389;51.412;5.436;2023-04-07T04:30:53;23.60;;;9.63;;
74044;SDS011;62389;51.412;5.436;2023-04-07T04:33:19;21.20;;;8.02;;
74044;SDS011;62389;51.412;5.436;2023-04-07T04:35:45;19.98;;;7.30;;
74044;SDS011;62389;51.412;5.436;2023-04-07T04:38:10;20.70;;;8.35;;
74044;SDS011;62389;51.412;5.436;2023-04-07T04:40:36;22.45;;;8.80;;
74044;SDS011;62389;51.412;5.436;2023-04-07T04:43:01;21.77;;;8.20;;
74044;SDS011;62389;51.412;5.436;2023-04-07T04:45:30;24.60;;;9.05;;
74044;SDS011;62389;51.412;5.436;2023-04-07T04:47:56;18.33;;;8.00;;
74044;SDS011;62389;51.412;5.436;2023-04-07T04:50:22;21.40;;;9.18;;
74044;SDS011;62389;51.412;5.436;2023-04-07T04:52:47;27.27;;;9.05;;
74044;SDS011;62389;51.412;5.436;2023-04-07T04:55:12;26.25;;;8.02;;
74044;SDS011;62389;51.412;5.436;2023-04-07T04:57:38;24.33;;;7.18;;
74044;SDS011;62389;51.412;5.436;2023-04-07T05:00:04;23.27;;;8.48;;
74044;SDS011;62389;51.412;5.436;2023-04-07T05:02:31;29.02;;;9.30;;
74044;SDS011;62389;51.412;5.436;2023-04-07T05:04:57;21.90;;;8.80;;
74044;SDS011;62389;51.412;5.436;2023-04-07T05:07:22;22.38;;;8.13;;
74044;SDS011;62389;51.412;5.436;2023-04-07T05:09:48;19.30;;;8.70;;
74044;SDS011;62389;51.412;5.436;2023-04-07T05:12:14;22.75;;;8.85;;
74044;SDS011;62389;51.412;5.436;2023-04-07T05:14:39;26.30;;;8.85;;
74044;SDS011;62389;51.412;5.436;2023-04-07T05:17:05;25.65;;;9.52;;
74044;SDS011;62389;51.412;5.436;2023-04-07T05:19:30;27.02;;;9.80;;
74044;SDS011;62389;51.412;5.436;2023-04-07T05:21:56;27.20;;;9.27;;
74044;SDS011;62389;51.412;5.436;2023-04-07T05:24:24;23.83;;;10.68;;
74044;SDS011;62389;51.412;5.436;2023-04-07T05:26:52;28.35;;;10.45;;
74044;SDS011;62389;51.412;5.436;2023-04-07T05:29:18;29.08;;;11.93;;
74044;SDS011;62389;51.412;5.436;2023-04-07T05:31:43;32.05;;;10.45;;
74044;SDS011;62389;51.412;5.436;2023-04-07T05:34:09;26.17;;;11.98;;
74044;SDS011;62389;51.412;5.436;2023-04-07T05:36:34;28.80;;;12.30;;
74044;SDS011;62389;51.412;5.436;2023-04-07T05:39:00;32.75;;;13.32;;
74044;SDS011;62389;51.412;5.436;2023-04-07T05:41:25;33.35;;;12.27;;
74044;SDS011;62389;51.412;5.436;2023-04-07T05:43:51;37.35;;;13.65;;
74044;SDS011;62389;51.412;5.436;2023-04-07T05:46:16;37.33;;;13.45;;
74044;SDS011;62389;51.412;5.436;2023-04-07T05:48:42;33.28;;;13.77;;
74044;SDS011;62389;51.412;5.436;2023-04-07T05:51:07;34.25;;;11.95;;
74044;SDS011;62389;51.412;5.436;2023-04-07T05:53:32;35.08;;;12.85;;
74044;SDS011;62389;51.412;5.436;2023-04-07T05:55:58;30.38;;;11.75;;
74044;SDS011;62389;51.412;5.436;2023-04-07T05:58:23;32.33;;;12.82;;
74044;SDS011;62389;51.412;5.436;2023-04-07T06:00:49;38.05;;;13.40;;
74044;SDS011;62389;51.412;5.436;2023-04-07T06:03:15;32.97;;;12.63;;
74044;SDS011;62389;51.412;5.436;2023-04-07T06:05:40;35.83;;;13.07;;
74044;SDS011;62389;51.412;5.436;2023-04-07T06:08:08;31.05;;;12.70;;
74044;SDS011;62389;51.412;5.436;2023-04-07T06:10:34;36.63;;;12.38;;
74044;SDS011;62389;51.412;5.436;2023-04-07T06:12:59;35.92;;;13.65;;
74044;SDS011;62389;51.412;5.436;2023-04-07T06:15:25;32.38;;;13.15;;
74044;SDS011;62389;51.412;5.436;2023-04-07T06:17:50;29.98;;;13.30;;
74044;SDS011;62389;51.412;5.436;2023-04-07T06:20:16;29.92;;;11.75;;
74044;SDS011;62389;51.412;5.436;2023-04-07T06:22:41;34.80;;;13.23;;
74044;SDS011;62389;51.412;5.436;2023-04-07T06:25:07;35.53;;;13.25;;
74044;SDS011;62389;51.412;5.436;2023-04-07T06:27:33;35.03;;;12.75;;
74044;SDS011;62389;51.412;5.436;2023-04-07T06:29:59;34.97;;;11.82;;
74044;SDS011;62389;51.412;5.436;2023-04-07T06:32:25;35.42;;;13.43;;
74044;SDS011;62389;51.412;5.436;2023-04-07T06:34:50;32.90;;;13.48;;
74044;SDS011;62389;51.412;5.436;2023-04-07T06:37:16;29.35;;;13.18;;
74044;SDS011;62389;51.412;5.436;2023-04-07T06:39:42;29.90;;;11.85;;
74044;SDS011;62389;51.412;5.436;2023-04-07T06:42:07;31.15;;;13.65;;
74044;SDS011;62389;51.412;5.436;2023-04-07T06:44:33;33.72;;;13.63;;
74044;SDS011;62389;51.412;5.436;2023-04-07T06:46:58;31.70;;;11.88;;
74044;SDS011;62389;51.412;5.436;2023-04-07T06:49:23;34.05;;;12.60;;
74044;SDS011;62389;51.412;5.436;2023-04-07T06:51:49;33.45;;;11.80;;
74044;SDS011;62389;51.412;5.436;2023-04-07T06:54:14;34.30;;;13.05;;
74044;SDS011;62389;51.412;5.436;2023-04-07T06:56:40;41.60;;;14.25;;
74044;SDS011;62389;51.412;5.436;2023-04-07T06:59:06;34.45;;;11.85;;
74044;SDS011;62389;51.412;5.436;2023-04-07T07:01:32;35.25;;;11.98;;
74044;SDS011;62389;51.412;5.436;2023-04-07T07:03:58;36.47;;;12.32;;
74044;SDS011;62389;51.412;5.436;2023-04-07T07:06:25;29.85;;;12.52;;
74044;SDS011;62389;51.412;5.436;2023-04-07T07:08:51;25.20;;;11.27;;
74044;SDS011;62389;51.412;5.436;2023-04-07T07:11:17;31.23;;;11.60;;
74044;SDS011;62389;51.412;5.436;2023-04-07T07:13:42;26.83;;;10.98;;
74044;SDS011;62389;51.412;5.436;2023-04-07T07:16:09;24.42;;;11.00;;
74044;SDS011;62389;51.412;5.436;2023-04-07T07:18:34;26.55;;;10.85;;
74044;SDS011;62389;51.412;5.436;2023-04-07T07:21:00;18.90;;;9.75;;
74044;SDS011;62389;51.412;5.436;2023-04-07T07:23:26;19.23;;;8.65;;
74044;SDS011;62389;51.412;5.436;2023-04-07T07:25:51;24.02;;;10.65;;
74044;SDS011;62389;51.412;5.436;2023-04-07T07:28:17;22.65;;;10.27;;
74044;SDS011;62389;51.412;5.436;2023-04-07T07:30:42;18.60;;;8.85;;
74044;SDS011;62389;51.412;5.436;2023-04-07T07:33:07;20.30;;;8.00;;
74044;SDS011;62389;51.412;5.436;2023-04-07T07:35:33;21.60;;;9.55;;
74044;SDS011;62389;51.412;5.436;2023-04-07T07:37:59;17.50;;;8.50;;
74044;SDS011;62389;51.412;5.436;2023-04-07T07:40:25;17.23;;;9.20;;
74044;SDS011;62389;51.412;5.436;2023-04-07T07:42:50;17.88;;;7.60;;
74044;SDS011;62389;51.412;5.436;2023-04-07T07:45:16;16.92;;;8.63;;
74044;SDS011;62389;51.412;5.436;2023-04-07T07:47:43;20.75;;;9.02;;
74044;SDS011;62389;51.412;5.436;2023-04-07T07:50:09;17.75;;;8.07;;
74044;SDS011;62389;51.412;5.436;2023-04-07T07:52:34;18.60;;;8.80;;
74044;SDS011;62389;51.412;5.436;2023-04-07T07:55:00;16.83;;;7.75;;
74044;SDS011;62389;51.412;5.436;2023-04-07T07:57:25;18.80;;;8.35;;
74044;SDS011;62389;51.412;5.436;2023-04-07T07:59:51;19.10;;;8.27;;
74044;SDS011;62389;51.412;5.436;2023-04-07T08:02:17;18.25;;;8.35;;
74044;SDS011;62389;51.412;5.436;2023-04-07T08:04:42;15.90;;;7.45;;
74044;SDS011;62389;51.412;5.436;2023-04-07T08:07:08;15.57;;;6.97;;
74044;SDS011;62389;51.412;5.436;2023-04-07T08:09:35;14.60;;;6.65;;
74044;SDS011;62389;51.412;5.436;2023-04-07T08:12:00;16.52;;;6.70;;
74044;SDS011;62389;51.412;5.436;2023-04-07T08:14:26;15.55;;;7.03;;
74044;SDS011;62389;51.412;5.436;2023-04-07T08:16:51;12.38;;;6.60;;
74044;SDS011;62389;51.412;5.436;2023-04-07T08:19:17;10.38;;;5.55;;
74044;SDS011;62389;51.412;5.436;2023-04-07T08:21:42;11.85;;;5.03;;
74044;SDS011;62389;51.412;5.436;2023-04-07T08:24:08;13.73;;;5.85;;
74044;SDS011;62389;51.412;5.436;2023-04-07T08:26:34;14.73;;;6.78;;
74044;SDS011;62389;51.412;5.436;2023-04-07T08:29:00;12.13;;;6.35;;
74044;SDS011;62389;51.412;5.436;2023-04-07T08:31:25;15.50;;;6.65;;
74044;SDS011;62389;51.412;5.436;2023-04-07T08:33:51;13.57;;;6.05;;
74044;SDS011;62389;51.412;5.436;2023-04-07T08:36:21;11.73;;;5.25;;
74044;SDS011;62389;51.412;5.436;2023-04-07T08:38:47;14.70;;;6.50;;
74044;SDS011;62389;51.412;5.436;2023-04-07T08:41:13;17.20;;;6.47;;
74044;SDS011;62389;51.412;5.436;2023-04-07T08:43:43;13.95;;;6.70;;
74044;SDS011;62389;51.412;5.436;2023-04-07T08:46:13;16.88;;;7.78;;
74044;SDS011;62389;51.412;5.436;2023-04-07T08:48:39;18.83;;;8.18;;
74044;SDS011;62389;51.412;5.436;2023-04-07T08:51:08;16.85;;;7.88;;
74044;SDS011;62389;51.412;5.436;2023-04-07T08:53:42;22.88;;;8.77;;
74044;SDS011;62389;51.412;5.436;2023-04-07T08:56:16;18.45;;;9.13;;
74044;SDS011;62389;51.412;5.436;2023-04-07T08:58:43;15.13;;;7.47;;
74044;SDS011;62389;51.412;5.436;2023-04-07T09:01:09;20.23;;;7.50;;
74044;SDS011;62389;51.412;5.436;2023-04-07T09:03:35;14.75;;;6.60;;
74044;SDS011;62389;51.412;5.436;2023-04-07T09:06:02;19.50;;;8.38;;
74044;SDS011;62389;51.412;5.436;2023-04-07T09:08:28;15.02;;;7.13;;
74044;SDS011;62389;51.412;5.436;2023-04-07T09:10:53;14.15;;;7.05;;
74044;SDS011;62389;51.412;5.436;2023-04-07T09:13:21;15.45;;;6.90;;
74044;SDS011;62389;51.412;5.436;2023-04-07T09:15:48;13.88;;;6.93;;
74044;SDS011;62389;51.412;5.436;2023-04-07T09:18:13;10.25;;;4.60;;
74044;SDS011;62389;51.412;5.436;2023-04-07T09:23:32;10.95;;;5.20;;
74044;SDS011;62389;51.412;5.436;2023-04-07T09:26:00;11.25;;;3.88;;
74044;SDS011;62389;51.412;5.436;2023-04-07T09:28:42;9.77;;;3.97;;
74044;SDS011;62389;51.412;5.436;2023-04-07T09:31:09;8.18;;;3.33;;
74044;SDS011;62389;51.412;5.436;2023-04-07T09:33:35;7.32;;;3.20;;
74044;SDS011;62389;51.412;5.436;2023-04-07T09:36:01;5.60;;;3.20;;
74044;SDS011;62389;51.412;5.436;2023-04-07T09:38:34;5.00;;;2.78;;
74044;SDS011;62389;51.412;5.436;2023-04-07T09:41:04;8.43;;;3.97;;
74044;SDS011;62389;51.412;5.436;2023-04-07T09:43:35;6.32;;;2.33;;
74044;SDS011;62389;51.412;5.436;2023-04-07T09:46:09;5.45;;;2.55;;
74044;SDS011;62389;51.412;5.436;2023-04-07T09:48:38;12.02;;;2.78;;
74044;SDS011;62389;51.412;5.436;2023-04-07T09:51:14;11.55;;;2.35;;
74044;SDS011;62389;51.412;5.436;2023-04-07T09:53:45;6.32;;;2.13;;
74044;SDS011;62389;51.412;5.436;2023-04-07T09:56:13;8.07;;;4.22;;
74044;SDS011;62389;51.412;5.436;2023-04-07T09:58:40;6.35;;;2.80;;
74044;SDS011;62389;51.412;5.436;2023-04-07T10:01:08;8.20;;;2.83;;
74044;SDS011;62389;51.412;5.436;2023-04-07T10:03:37;11.00;;;3.83;;
74044;SDS011;62389;51.412;5.436;2023-04-07T10:06:03;5.28;;;2.13;;
74044;SDS011;62389;51.412;5.436;2023-04-07T10:08:33;4.43;;;2.65;;
74044;SDS011;62389;51.412;5.436;2023-04-07T10:11:01;5.35;;;2.63;;
74044;SDS011;62389;51.412;5.436;2023-04-07T10:13:30;9.85;;;3.47;;
74044;SDS011;62389;51.412;5.436;2023-04-07T10:15:57;8.15;;;2.90;;
74044;SDS011;62389;51.412;5.436;2023-04-07T10:18:27;8.18;;;2.83;;
74044;SDS011;62389;51.412;5.436;2023-04-07T10:20:55;7.85;;;2.85;;
74044;SDS011;62389;51.412;5.436;2023-04-07T10:26:16;6.05;;;2.08;;
74044;SDS011;62389;51.412;5.436;2023-04-07T10:28:44;4.18;;;2.35;;
74044;SDS011;62389;51.412;5.436;2023-04-07T10:31:14;7.75;;;3.35;;
74044;SDS011;62389;51.412;5.436;2023-04-07T10:33:48;8.73;;;3.03;;
74044;SDS011;62389;51.412;5.436;2023-04-07T10:36:18;5.88;;;3.13;;
74044;SDS011;62389;51.412;5.436;2023-04-07T10:41:38;7.85;;;4.75;;
74044;SDS011;62389;51.412;5.436;2023-04-07T10:44:05;13.02;;;4.45;;
74044;SDS011;62389;51.412;5.436;2023-04-07T10:49:09;8.55;;;2.85;;
74044;SDS011;62389;51.412;5.436;2023-04-07T10:51:37;6.38;;;3.30;;
74044;SDS011;62389;51.412;5.436;2023-04-07T10:59:31;9.15;;;2.53;;
74044;SDS011;62389;51.412;5.436;2023-04-07T11:04:39;7.90;;;3.08;;
74044;SDS011;62389;51.412;5.436;2023-04-07T11:07:06;5.97;;;2.60;;
74044;SDS011;62389;51.412;5.436;2023-04-07T11:09:32;10.65;;;3.22;;
74044;SDS011;62389;51.412;5.436;2023-04-07T11:11:58;5.50;;;2.85;;
74044;SDS011;62389;51.412;5.436;2023-04-07T11:14:24;8.45;;;3.35;;
74044;SDS011;62389;51.412;5.436;2023-04-07T11:16:51;7.07;;;3.20;;
74044;SDS011;62389;51.412;5.436;2023-04-07T11:19:17;6.95;;;2.85;;
74044;SDS011;62389;51.412;5.436;2023-04-07T11:21:43;10.50;;;3.70;;
74044;SDS011;62389;51.412;5.436;2023-04-07T11:24:08;9.30;;;3.55;;
74044;SDS011;62389;51.412;5.436;2023-04-07T11:26:38;8.73;;;3.33;;
74044;SDS011;62389;51.412;5.436;2023-04-07T11:29:05;8.18;;;3.28;;
74044;SDS011;62389;51.412;5.436;2023-04-07T11:31:31;7.88;;;2.92;;
74044;SDS011;62389;51.412;5.436;2023-04-07T11:33:58;6.75;;;3.17;;
74044;SDS011;62389;51.412;5.436;2023-04-07T11:36:30;6.68;;;2.95;;
74044;SDS011;62389;51.412;5.436;2023-04-07T11:38:57;8.63;;;3.13;;
74044;SDS011;62389;51.412;5.436;2023-04-07T11:41:24;5.45;;;2.63;;
74044;SDS011;62389;51.412;5.436;2023-04-07T11:44:06;8.63;;;3.05;;
74044;SDS011;62389;51.412;5.436;2023-04-07T11:46:33;5.78;;;2.22;;
74044;SDS011;62389;51.412;5.436;2023-04-07T11:49:10;6.97;;;2.33;;
74044;SDS011;62389;51.412;5.436;2023-04-07T11:51:40;6.70;;;2.33;;
74044;SDS011;62389;51.412;5.436;2023-04-07T11:54:07;8.82;;;2.80;;
74044;SDS011;62389;51.412;5.436;2023-04-07T11:56:45;13.60;;;3.60;;
74044;SDS011;62389;51.412;5.436;2023-04-07T11:59:18;12.80;;;5.55;;
74044;SDS011;62389;51.412;5.436;2023-04-07T12:01:48;7.45;;;3.30;;
74044;SDS011;62389;51.412;5.436;2023-04-07T12:04:15;8.85;;;2.65;;
74044;SDS011;62389;51.412;5.436;2023-04-07T12:06:41;16.02;;;6.93;;
74044;SDS011;62389;51.412;5.436;2023-04-07T12:09:24;5.15;;;3.00;;
74044;SDS011;62389;51.412;5.436;2023-04-07T12:11:53;8.20;;;3.63;;
74044;SDS011;62389;51.412;5.436;2023-04-07T12:14:20;9.68;;;3.10;;
74044;SDS011;62389;51.412;5.436;2023-04-07T12:16:45;9.43;;;3.15;;
74044;SDS011;62389;51.412;5.436;2023-04-07T12:19:11;10.35;;;3.40;;
74044;SDS011;62389;51.412;5.436;2023-04-07T12:21:36;6.72;;;3.00;;
74044;SDS011;62389;51.412;5.436;2023-04-07T12:24:02;9.80;;;3.33;;
74044;SDS011;62389;51.412;5.436;2023-04-07T12:26:27;9.65;;;3.22;;
74044;SDS011;62389;51.412;5.436;2023-04-07T12:28:53;10.90;;;3.63;;
74044;SDS011;62389;51.412;5.436;2023-04-07T12:31:19;6.93;;;2.83;;
74044;SDS011;62389;51.412;5.436;2023-04-07T12:33:44;8.88;;;2.97;;
74044;SDS011;62389;51.412;5.436;2023-04-07T12:36:10;9.23;;;3.08;;
74044;SDS011;62389;51.412;5.436;2023-04-07T12:38:36;8.65;;;3.17;;
74044;SDS011;62389;51.412;5.436;2023-04-07T12:41:01;6.47;;;2.75;;
74044;SDS011;62389;51.412;5.436;2023-04-07T12:43:30;8.95;;;3.13;;
74044;SDS011;62389;51.412;5.436;2023-04-07T12:45:56;7.85;;;2.70;;
74044;SDS011;62389;51.412;5.436;2023-04-07T12:48:21;11.95;;;3.50;;
74044;SDS011;62389;51.412;5.436;2023-04-07T12:50:47;10.00;;;2.97;;
74044;SDS011;62389;51.412;5.436;2023-04-07T12:53:13;6.05;;;3.13;;
74044;SDS011;62389;51.412;5.436;2023-04-07T12:55:38;8.25;;;2.65;;
74044;SDS011;62389;51.412;5.436;2023-04-07T12:58:04;6.35;;;3.60;;
74044;SDS011;62389;51.412;5.436;2023-04-07T13:00:29;9.13;;;2.40;;
74044;SDS011;62389;51.412;5.436;2023-04-07T13:02:55;8.93;;;3.42;;
74044;SDS011;62389;51.412;5.436;2023-04-07T13:05:21;6.18;;;2.45;;
74044;SDS011;62389;51.412;5.436;2023-04-07T13:07:46;10.15;;;3.13;;
74044;SDS011;62389;51.412;5.436;2023-04-07T13:10:13;5.22;;;2.88;;
74044;SDS011;62389;51.412;5.436;2023-04-07T13:12:38;8.45;;;2.90;;
74044;SDS011;62389;51.412;5.436;2023-04-07T13:15:05;8.73;;;3.00;;
74044;SDS011;62389;51.412;5.436;2023-04-07T13:17:31;8.40;;;3.10;;
74044;SDS011;62389;51.412;5.436;2023-04-07T13:19:57;7.60;;;2.38;;
74044;SDS011;62389;51.412;5.436;2023-04-07T13:22:22;7.00;;;2.65;;
74044;SDS011;62389;51.412;5.436;2023-04-07T13:24:48;7.57;;;3.03;;
74044;SDS011;62389;51.412;5.436;2023-04-07T13:27:13;8.35;;;2.60;;
74044;SDS011;62389;51.412;5.436;2023-04-07T13:29:39;7.53;;;2.33;;
74044;SDS011;62389;51.412;5.436;2023-04-07T13:32:05;6.38;;;2.15;;
74044;SDS011;62389;51.412;5.436;2023-04-07T13:34:31;11.45;;;2.80;;
74044;SDS011;62389;51.412;5.436;2023-04-07T13:36:59;6.97;;;2.28;;
74044;SDS011;62389;51.412;5.436;2023-04-07T13:39:26;6.68;;;2.47;;
74044;SDS011;62389;51.412;5.436;2023-04-07T13:41:51;6.53;;;2.50;;
74044;SDS011;62389;51.412;5.436;2023-04-07T13:44:16;9.05;;;2.88;;
74044;SDS011;62389;51.412;5.436;2023-04-07T13:46:42;15.32;;;5.63;;
74044;SDS011;62389;51.412;5.436;2023-04-07T13:49:07;10.13;;;3.20;;
74044;SDS011;62389;51.412;5.436;2023-04-07T13:51:33;6.20;;;2.35;;
74044;SDS011;62389;51.412;5.436;2023-04-07T13:53:58;7.82;;;2.70;;
74044;SDS011;62389;51.412;5.436;2023-04-07T13:56:24;8.00;;;2.58;;
74044;SDS011;62389;51.412;5.436;2023-04-07T13:58:49;8.30;;;2.08;;
74044;SDS011;62389;51.412;5.436;2023-04-07T14:01:15;5.35;;;2.05;;
74044;SDS011;62389;51.412;5.436;2023-04-07T14:03:41;7.50;;;2.28;;
74044;SDS011;62389;51.412;5.436;2023-04-07T14:06:06;6.85;;;2.47;;
74044;SDS011;62389;51.412;5.436;2023-04-07T14:08:32;6.30;;;2.60;;
74044;SDS011;62389;51.412;5.436;2023-04-07T14:10:57;9.13;;;1.98;;
74044;SDS011;62389;51.412;5.436;2023-04-07T14:13:23;6.57;;;2.30;;
74044;SDS011;62389;51.412;5.436;2023-04-07T14:15:48;9.90;;;2.55;;
74044;SDS011;62389;51.412;5.436;2023-04-07T14:18:14;5.78;;;2.22;;
74044;SDS011;62389;51.412;5.436;2023-04-07T14:20:40;8.85;;;2.67;;
74044;SDS011;62389;51.412;5.436;2023-04-07T14:23:05;6.45;;;2.58;;
74044;SDS011;62389;51.412;5.436;2023-04-07T14:25:31;7.30;;;2.22;;
74044;SDS011;62389;51.412;5.436;2023-04-07T14:27:56;5.47;;;2.50;;
74044;SDS011;62389;51.412;5.436;2023-04-07T14:30:21;5.95;;;2.40;;
74044;SDS011;62389;51.412;5.436;2023-04-07T14:32:47;10.65;;;3.63;;
74044;SDS011;62389;51.412;5.436;2023-04-07T14:35:12;5.82;;;2.92;;
74044;SDS011;62389;51.412;5.436;2023-04-07T14:37:38;6.43;;;3.30;;
74044;SDS011;62389;51.412;5.436;2023-04-07T14:40:03;9.30;;;3.25;;
74044;SDS011;62389;51.412;5.436;2023-04-07T14:42:30;8.48;;;2.88;;
74044;SDS011;62389;51.412;5.436;2023-04-07T14:44:56;8.02;;;3.55;;
74044;SDS011;62389;51.412;5.436;2023-04-07T14:47:22;9.20;;;3.30;;
74044;SDS011;62389;51.412;5.436;2023-04-07T14:49:48;8.85;;;3.22;;
74044;SDS011;62389;51.412;5.436;2023-04-07T14:52:13;6.55;;;2.88;;
74044;SDS011;62389;51.412;5.436;2023-04-07T14:54:39;9.70;;;3.20;;